Woodland, Minnesota
Current Conditions -  °F | °C
As of 10:53 AM on Thursday 23 Oct 2014 (Local Time) from KMIC Reporting Station
Overcast Overcast  
Wind Chill: 57°   Ceiling: 1100
Heat Index: 57°   Visibility: 8mi
Dew Point: 52°   Wind: 7mph
Humidity: 83%   Direction: 230°SW
Pressure: 29.99"   Gusts: NA
Location:  44.9781°N, 93.5263°W
Report Text: KMIC 231553Z 23006KT 8SM OVC011 14/11 A2999 RMK AO2 SLP158 T01390111
Loading
Personal Weather Stations






























Interactive Weather Map
Tropical Storm Tracking
New forecast layout! Learn more

10-Day Weather Forecast

Advertisements
Track Severe Weather on mobile